Terminal Aerodrome Forecast
Issued by NWS

Home | Current Version | Previous Version | Graphics & Text | Print | Product List | Glossary On
Versions: 1 2 3 4 5 6 7 8 9 10 11 12 13 14 15 16
850
FTUS43 KMPX 211016 AAA
TAFAXN
TAF AMD
KAXN 211016Z 2110/2206 18019KT P6SM BKN080
     FM211400 17017KT P6SM VCSH OVC025
     FM211600 18014G23KT 6SM -RA OVC015
     FM212100 26011KT P6SM OVC040
     FM220000 27010KT P6SM BKN090=

USA.gov is the U.S. government's official web portal to all federal, state and local government web resources and services.